Time;durP1;ratioP1;P1;durP2;ratioP2;P2;SDS_P1;SDS_P2;PMS_P1;PMS_P2;Temp;Humidity;BMP_temperature;BMP_pressure;BME280_temperature;BME280_humidity;BME280_pressure;Samples;Min_cycle;Max_cycle;Signal;HPM_P1;HPM_P2
2023/04/20 00:00:49;;;;;;;2.22;0.82;;;;;;;17.40;35.18;102113.78;5092356;28;20074;-50
2023/04/20 00:03:19;;;;;;;5.43;1.13;;;;;;;17.25;34.75;102117.88;5092175;28;20027;-49
2023/04/20 00:05:48;;;;;;;3.65;1.40;;;;;;;17.28;35.09;102114.75;5090555;28;20032;-46
2023/04/20 00:08:16;;;;;;;6.28;1.52;;;;;;;17.15;34.72;102116.47;5089990;28;20481;-50
2023/04/20 00:10:43;;;;;;;2.47;1.30;;;;;;;17.16;35.39;102117.31;5094030;28;20157;-47
2023/04/20 00:13:10;;;;;;;2.67;0.93;;;;;;;16.94;35.69;102116.84;5112164;28;20024;-51
2023/04/20 00:15:36;;;;;;;3.75;1.55;;;;;;;16.96;34.74;102120.13;5096541;28;21519;-48
2023/04/20 00:18:02;;;;;;;6.13;1.63;;;;;;;17.07;35.41;102118.63;5089294;28;20436;-48
2023/04/20 00:20:28;;;;;;;4.65;1.30;;;;;;;16.88;35.67;102117.72;5091117;28;20627;-50
2023/04/20 00:22:55;;;;;;;2.75;1.40;;;;;;;17.02;35.86;102121.16;5089493;28;20023;-50
2023/04/20 00:25:21;;;;;;;6.22;1.52;;;;;;;16.88;35.43;102117.72;5091778;28;20016;-50
2023/04/20 00:27:47;;;;;;;3.63;2.00;;;;;;;16.62;36.20;102122.16;5091871;28;20028;-49
2023/04/20 00:30:14;;;;;;;6.68;1.58;;;;;;;16.61;36.45;102134.03;5082546;28;20023;-49
2023/04/20 00:32:40;;;;;;;5.65;1.67;;;;;;;16.54;37.08;102126.97;5074474;28;20058;-48
2023/04/20 00:35:07;;;;;;;5.28;1.30;;;;;;;16.58;37.45;102123.63;5091586;28;20035;-48
2023/04/20 00:37:33;;;;;;;6.30;1.50;;;;;;;16.53;36.73;102128.00;5088520;28;20390;-50
2023/04/20 00:39:59;;;;;;;4.15;1.40;;;;;;;16.24;38.69;102116.69;5098410;28;20032;-50
2023/04/20 00:42:25;;;;;;;2.85;1.38;;;;;;;16.35;38.77;102128.72;5091761;28;20099;-50
2023/04/20 00:44:52;;;;;;;4.22;1.27;;;;;;;16.39;39.04;102124.53;5091681;28;20051;-49
2023/04/20 00:47:18;;;;;;;4.18;1.30;;;;;;;16.40;38.77;102125.38;5091515;28;20433;-51
2023/04/20 00:49:44;;;;;;;11.80;2.20;;;;;;;16.40;38.91;102118.09;5077335;28;20095;-51
2023/04/20 00:52:11;;;;;;;5.72;1.40;;;;;;;16.49;36.97;102118.66;5071295;28;20028;-50
2023/04/20 00:54:38;;;;;;;3.53;1.52;;;;;;;16.45;38.03;102112.88;5083663;28;20093;-49
2023/04/20 00:57:04;;;;;;;2.55;1.10;;;;;;;16.51;38.72;102122.84;5111732;28;20027;-51
2023/04/20 00:59:31;;;;;;;2.97;1.52;;;;;;;16.61;38.69;102115.09;5112131;28;20028;-47
2023/04/20 01:01:57;;;;;;;5.28;1.58;;;;;;;16.53;38.14;102119.91;5099821;28;20077;-60
2023/04/20 01:04:25;;;;;;;5.25;1.30;;;;;;;16.12;38.13;102123.78;5091378;28;20099;-59
2023/04/20 01:06:51;;;;;;;4.80;1.45;;;;;;;16.04;39.34;102127.53;5092816;28;20028;-52
2023/04/20 01:09:17;;;;;;;2.90;1.30;;;;;;;16.14;39.44;102124.41;5095329;28;20410;-49
2023/04/20 01:11:44;;;;;;;6.22;1.70;;;;;;;16.16;39.17;102126.88;5100005;28;20068;-53
2023/04/20 01:14:10;;;;;;;3.05;1.60;;;;;;;16.04;39.02;102135.63;5094824;28;20020;-55
2023/04/20 01:16:36;;;;;;;2.33;1.30;;;;;;;15.90;39.63;102131.31;5094864;28;20531;-52
2023/04/20 01:19:03;;;;;;;4.40;1.77;;;;;;;15.81;39.49;102136.06;5094943;28;20115;-57
2023/04/20 01:21:29;;;;;;;4.55;1.63;;;;;;;15.83;40.33;102134.03;5085391;28;20040;-57
2023/04/20 01:23:56;;;;;;;3.58;1.45;;;;;;;15.95;39.92;102139.59;5074713;28;20024;-58
2023/04/20 01:26:24;;;;;;;4.50;1.40;;;;;;;16.04;39.41;102138.31;5075146;28;20025;-58
2023/04/20 01:28:51;;;;;;;6.70;1.67;;;;;;;16.12;40.09;102140.00;5091281;28;20020;-58
2023/04/20 01:31:17;;;;;;;1.40;1.25;;;;;;;16.16;39.62;102146.66;5108050;28;20032;-58
2023/04/20 01:33:44;;;;;;;4.07;1.52;;;;;;;16.13;38.82;102151.63;5095236;28;20027;-51
2023/04/20 01:36:10;;;;;;;3.95;1.50;;;;;;;16.02;39.67;102129.63;5094625;28;20393;-51
2023/04/20 01:38:36;;;;;;;6.10;1.60;;;;;;;15.87;39.43;102145.22;5094460;28;20503;-49
2023/04/20 01:41:05;;;;;;;5.28;1.75;;;;;;;15.74;38.91;102139.84;5094820;28;20042;-53
2023/04/20 01:43:33;;;;;;;6.03;1.60;;;;;;;15.72;39.76;102145.44;5095058;28;20030;-46
2023/04/20 01:46:00;;;;;;;5.15;1.75;;;;;;;15.70;39.95;102147.50;5103509;28;20055;-48
2023/04/20 01:48:26;;;;;;;4.47;1.63;;;;;;;15.65;39.81;102149.16;5105228;28;20116;-50
2023/04/20 01:50:52;;;;;;;4.78;1.48;;;;;;;15.55;39.49;102152.28;5094469;28;20032;-52
2023/04/20 01:53:19;;;;;;;5.88;1.45;;;;;;;15.40;39.79;102157.03;5103942;27;20161;-50
2023/04/20 01:55:46;;;;;;;6.25;1.60;;;;;;;15.23;40.19;102157.41;5109743;28;20036;-51
2023/04/20 01:58:12;;;;;;;4.47;1.42;;;;;;;14.95;40.92;102152.16;5082163;28;20023;-53
2023/04/20 02:00:38;;;;;;;3.85;1.40;;;;;;;14.96;41.49;102156.50;5102472;28;20028;-50
2023/04/20 02:03:05;;;;;;;5.53;1.80;;;;;;;14.90;41.52;102168.13;5103623;28;20032;-49
2023/04/20 02:05:31;;;;;;;4.80;1.60;;;;;;;14.96;40.85;102158.38;5095283;28;20464;-50
2023/04/20 02:07:57;;;;;;;3.55;1.70;;;;;;;14.87;41.02;102163.13;5092544;28;20051;-52
2023/04/20 02:10:24;;;;;;;3.22;1.50;;;;;;;14.69;42.21;102169.06;5094565;28;20024;-51
2023/04/20 02:12:50;;;;;;;7.20;2.10;;;;;;;14.75;41.75;102167.44;5094704;28;20108;-51
2023/04/20 02:15:17;;;;;;;3.60;1.35;;;;;;;14.53;42.40;102167.53;5094129;28;20032;-51
2023/04/20 02:17:44;;;;;;;3.80;1.50;;;;;;;14.45;42.13;102173.06;5093678;28;20534;-50
2023/04/20 02:20:11;;;;;;;6.13;1.75;;;;;;;14.60;41.77;102175.66;5094538;28;20110;-51
2023/04/20 02:22:38;;;;;;;4.25;1.60;;;;;;;14.24;42.53;102184.75;5086430;28;20020;-51
2023/04/20 02:25:05;;;;;;;4.97;1.60;;;;;;;14.35;42.84;102177.16;5073848;28;20035;-50
2023/04/20 02:27:32;;;;;;;4.63;1.85;;;;;;;14.27;43.48;102184.38;5093675;28;20032;-50
2023/04/20 02:29:59;;;;;;;5.20;2.15;;;;;;;14.20;43.08;102186.16;5093798;28;20020;-48
2023/04/20 02:32:25;;;;;;;5.20;1.70;;;;;;;13.90;43.46;102187.41;5093960;28;20028;-52
2023/04/20 02:34:52;;;;;;;4.55;1.90;;;;;;;13.89;43.12;102180.38;5081651;28;20105;-49
2023/04/20 02:37:18;;;;;;;5.68;1.85;;;;;;;13.64;43.79;102188.00;5097482;28;20518;-49
2023/04/20 02:39:45;;;;;;;4.00;1.52;;;;;;;13.72;43.34;102185.19;5111015;28;20020;-51
2023/04/20 02:42:11;;;;;;;4.28;1.60;;;;;;;13.71;43.75;102191.59;5102401;28;20106;-51
2023/04/20 02:44:37;;;;;;;6.82;2.33;;;;;;;13.69;43.86;102191.78;5101279;28;20131;-51
2023/04/20 02:47:04;;;;;;;6.07;1.70;;;;;;;13.62;44.26;102196.28;5113813;28;20059;-56
2023/04/20 02:49:30;;;;;;;7.97;2.15;;;;;;;13.64;44.77;102210.38;5094740;28;20113;-52
2023/04/20 02:51:56;;;;;;;6.55;1.70;;;;;;;13.57;45.07;102219.41;5088956;28;20384;-50
2023/04/20 02:54:22;;;;;;;6.90;2.08;;;;;;;13.42;45.35;102217.59;5096032;28;20082;-49
2023/04/20 02:56:49;;;;;;;8.52;1.80;;;;;;;13.42;45.61;102228.34;5083734;28;20020;-46
2023/04/20 02:59:15;;;;;;;5.15;1.63;;;;;;;13.46;45.67;102218.06;5093267;28;20035;-51
2023/04/20 03:01:42;;;;;;;6.03;2.00;;;;;;;13.55;45.44;102213.38;5091890;28;20107;-51
2023/04/20 03:04:08;;;;;;;7.38;1.60;;;;;;;13.50;43.95;102229.28;5091001;28;20020;-49
2023/04/20 03:06:35;;;;;;;4.32;1.83;;;;;;;13.47;44.12;102231.31;5078602;28;20084;-50
2023/04/20 03:09:02;;;;;;;5.90;1.73;;;;;;;13.34;44.69;102231.19;5084845;28;20024;-48
2023/04/20 03:11:29;;;;;;;4.78;1.60;;;;;;;13.20;45.54;102235.53;5088588;28;20028;-51
2023/04/20 03:13:56;;;;;;;6.25;1.80;;;;;;;13.22;45.63;102246.16;5092901;28;20028;-50
2023/04/20 03:16:22;;;;;;;4.82;2.05;;;;;;;13.12;45.45;102242.88;5083674;28;20384;-51
2023/04/20 03:18:48;;;;;;;7.78;2.05;;;;;;;13.08;45.94;102237.03;5073266;28;20024;-47
2023/04/20 03:21:15;;;;;;;9.30;2.33;;;;;;;12.92;46.61;102238.09;5087033;28;20118;-48
2023/04/20 03:23:41;;;;;;;4.72;1.73;;;;;;;12.86;46.47;102241.53;5092381;28;20035;-49
2023/04/20 03:26:07;;;;;;;5.90;2.00;;;;;;;12.81;46.99;102245.78;5092965;28;20052;-48
2023/04/20 03:28:33;;;;;;;5.93;1.95;;;;;;;12.88;46.86;102244.88;5093133;28;20484;-49
2023/04/20 03:31:00;;;;;;;6.07;1.95;;;;;;;12.83;46.94;102241.09;5090998;28;20024;-48
2023/04/20 03:33:27;;;;;;;6.60;2.20;;;;;;;12.64;47.11;102250.50;5089310;28;20036;-47
2023/04/20 03:35:53;;;;;;;5.80;2.10;;;;;;;12.48;47.85;102256.91;5092993;28;20381;-44
2023/04/20 03:38:20;;;;;;;6.85;2.30;;;;;;;12.51;48.17;102255.72;5092930;28;20380;-48
2023/04/20 03:40:46;;;;;;;7.00;2.17;;;;;;;12.56;48.13;102259.50;5092659;28;20085;-48
2023/04/20 03:43:12;;;;;;;5.95;2.28;;;;;;;12.20;49.42;102262.03;5092919;28;20042;-47
2023/04/20 03:45:38;;;;;;;6.45;1.88;;;;;;;12.39;49.06;102264.22;5106626;28;20102;-46
2023/04/20 03:48:05;;;;;;;8.20;2.10;;;;;;;12.45;49.20;102264.50;5113238;28;20031;-47
2023/04/20 03:50:31;;;;;;;7.90;2.28;;;;;;;12.31;48.96;102269.66;5113308;28;20051;-46
2023/04/20 03:52:57;;;;;;;6.00;2.10;;;;;;;12.44;49.03;102269.03;5113215;28;20062;-48
2023/04/20 03:55:23;;;;;;;5.55;1.83;;;;;;;12.25;49.36;102265.00;5112600;28;20063;-46
2023/04/20 03:57:49;;;;;;;8.00;2.05;;;;;;;12.18;49.62;102276.66;5112876;28;20032;-47
2023/04/20 04:00:16;;;;;;;5.65;1.50;;;;;;;12.11;49.77;102279.25;5112819;28;20016;-49
2023/04/20 04:02:42;;;;;;;5.25;1.80;;;;;;;12.17;49.45;102281.22;5112027;28;20098;-46
2023/04/20 04:05:08;;;;;;;6.18;2.00;;;;;;;12.10;49.93;102282.94;5103587;28;20024;-48
2023/04/20 04:07:35;;;;;;;6.75;2.15;;;;;;;12.20;49.51;102296.09;5080525;28;20040;-46
2023/04/20 04:10:03;;;;;;;6.47;1.98;;;;;;;12.25;49.74;102294.53;5071759;28;20016;-49
2023/04/20 04:12:29;;;;;;;6.22;2.03;;;;;;;12.29;49.58;102301.22;5086274;28;20046;-45
2023/04/20 04:14:56;;;;;;;4.40;1.83;;;;;;;12.38;49.12;102302.84;5091839;28;20382;-45
2023/04/20 04:17:22;;;;;;;3.67;1.80;;;;;;;12.32;49.31;102306.22;5091875;28;20124;-47
2023/04/20 04:19:48;;;;;;;3.25;1.55;;;;;;;12.37;49.19;102314.56;5091996;28;20020;-45
2023/04/20 04:22:15;;;;;;;6.57;2.03;;;;;;;12.24;49.68;102318.91;5092083;28;20024;-49
2023/04/20 04:24:41;;;;;;;8.77;2.03;;;;;;;12.21;49.76;102320.06;5088755;28;20028;-49
2023/04/20 04:27:07;;;;;;;7.07;2.65;;;;;;;11.96;50.65;102322.13;5092110;28;20476;-46
2023/04/20 04:29:34;;;;;;;9.07;1.88;;;;;;;12.25;50.46;102321.38;5090745;28;20036;-46
2023/04/20 04:32:03;;;;;;;7.28;1.73;;;;;;;12.17;50.25;102324.16;5112221;28;20081;-47
2023/04/20 04:34:29;;;;;;;4.57;2.15;;;;;;;12.13;50.63;102317.47;5099905;28;20035;-50
2023/04/20 04:36:56;;;;;;;7.80;1.80;;;;;;;12.14;50.65;102324.50;5092137;28;20484;-48
2023/04/20 04:39:22;;;;;;;6.53;1.77;;;;;;;12.21;50.16;102328.13;5097566;28;20035;-46
2023/04/20 04:41:48;;;;;;;3.15;1.65;;;;;;;12.14;50.28;102332.56;5113629;28;20026;-46
2023/04/20 04:44:15;;;;;;;4.95;2.13;;;;;;;11.85;51.37;102342.16;5107516;28;20023;-49
2023/04/20 04:46:44;;;;;;;7.15;2.30;;;;;;;11.78;52.12;102343.03;5096246;28;20126;-49
2023/04/20 04:49:10;;;;;;;8.00;2.47;;;;;;;11.60;52.90;102338.78;5093554;28;20028;-44
2023/04/20 04:51:37;;;;;;;6.22;2.10;;;;;;;11.60;53.18;102345.94;5095642;28;20046;-48
2023/04/20 04:54:03;;;;;;;4.50;1.88;;;;;;;11.47;53.38;102346.53;5097372;28;20030;-46
2023/04/20 04:56:29;;;;;;;8.07;2.40;;;;;;;11.60;52.81;102343.28;5116227;28;20020;-45
2023/04/20 04:58:56;;;;;;;5.47;2.13;;;;;;;11.79;53.28;102336.63;5111735;28;20136;-47
2023/04/20 05:01:22;;;;;;;7.28;2.20;;;;;;;11.78;52.22;102335.81;5094841;28;20039;-48
2023/04/20 05:03:48;;;;;;;4.97;1.80;;;;;;;11.70;52.03;102341.22;5094528;28;20543;-46
2023/04/20 05:06:15;;;;;;;3.30;1.80;;;;;;;11.50;52.71;102343.50;5094909;28;20484;-47
2023/04/20 05:08:41;;;;;;;8.70;2.63;;;;;;;11.33;53.35;102340.06;5093702;28;20082;-46
2023/04/20 05:11:07;;;;;;;6.55;2.40;;;;;;;10.91;54.70;102342.22;5095317;28;20031;-47
2023/04/20 05:13:33;;;;;;;6.10;2.38;;;;;;;10.50;56.63;102345.81;5097001;28;20103;-46
2023/04/20 05:15:59;;;;;;;6.85;2.42;;;;;;;10.69;55.99;102347.28;5095269;28;20028;-47
2023/04/20 05:18:26;;;;;;;4.13;2.20;;;;;;;10.53;56.53;102334.75;5091540;28;20097;-47
2023/04/20 05:20:52;;;;;;;4.75;1.95;;;;;;;10.47;57.16;102339.94;5095205;28;20477;-44
2023/04/20 05:23:18;;;;;;;7.88;2.55;;;;;;;10.48;56.98;102338.94;5102033;28;20189;-47
2023/04/20 05:25:44;;;;;;;8.88;2.70;;;;;;;10.57;56.39;102338.78;5114997;28;20172;-47
2023/04/20 05:28:11;;;;;;;6.60;2.50;;;;;;;10.81;55.95;102342.41;5105900;28;20032;-47
2023/04/20 05:30:37;;;;;;;6.95;2.33;;;;;;;10.76;55.92;102345.59;5094938;28;20020;-44
2023/04/20 05:33:03;;;;;;;5.68;2.83;;;;;;;10.31;57.05;102346.16;5091863;28;20233;-48
2023/04/20 05:35:30;;;;;;;4.15;2.20;;;;;;;9.85;59.05;102356.44;5094656;28;20610;-47
2023/04/20 05:37:59;;;;;;;4.88;2.25;;;;;;;9.78;59.01;102358.94;5093466;28;20036;-48
2023/04/20 05:40:25;;;;;;;6.80;2.38;;;;;;;9.52;60.05;102368.88;5076091;28;20115;-46
2023/04/20 05:42:52;;;;;;;8.50;2.78;;;;;;;9.58;59.87;102360.22;5078850;28;20341;-47
2023/04/20 05:45:18;;;;;;;4.93;2.25;;;;;;;9.82;59.39;102355.91;5112547;28;20126;-47
2023/04/20 05:47:57;;;;;;;7.88;2.65;;;;;;;9.34;60.74;102373.50;5076937;28;20554;-47
2023/04/20 05:50:24;;;;;;;7.70;2.80;;;;;;;9.15;61.43;102378.06;5074438;28;20032;-48
2023/04/20 05:52:51;;;;;;;9.23;2.80;;;;;;;8.95;61.96;102379.28;5073582;28;20028;-48
2023/04/20 05:55:18;;;;;;;5.63;2.35;;;;;;;8.95;62.06;102369.44;5073883;28;20028;-47
2023/04/20 05:57:45;;;;;;;6.40;2.38;;;;;;;8.99;61.68;102369.94;5077732;28;20016;-47
2023/04/20 06:00:14;;;;;;;6.80;2.70;;;;;;;8.99;61.78;102365.47;5079598;28;20032;-47
2023/04/20 06:02:41;;;;;;;5.60;2.67;;;;;;;9.16;61.30;102354.84;5114639;28;20187;-48
2023/04/20 06:05:09;;;;;;;22.35;3.55;;;;;;;8.85;62.32;102368.72;5114648;28;20020;-45
2023/04/20 06:07:36;;;;;;;9.45;3.30;;;;;;;8.87;62.06;102376.56;5114518;27;20066;-47
2023/04/20 06:10:03;;;;;;;8.13;2.30;;;;;;;8.62;62.79;102379.06;5114865;28;20058;-45
2023/04/20 06:12:29;;;;;;;7.30;2.47;;;;;;;8.56;63.31;102382.38;5114564;28;20463;-48
2023/04/20 06:14:57;;;;;;;6.38;2.30;;;;;;;8.93;62.52;102389.28;5114119;28;20028;-46
2023/04/20 06:17:23;;;;;;;6.53;2.40;;;;;;;8.95;62.28;102393.47;5094436;28;20040;-46
2023/04/20 06:19:49;;;;;;;5.10;2.28;;;;;;;9.18;61.50;102385.75;5094069;28;20028;-46
2023/04/20 06:22:16;;;;;;;4.47;1.70;;;;;;;9.30;61.12;102396.19;5093951;28;20065;-46
2023/04/20 06:24:42;;;;;;;6.53;2.22;;;;;;;9.13;61.63;102397.94;5093574;28;20020;-45
2023/04/20 06:27:09;;;;;;;5.18;2.40;;;;;;;9.12;61.33;102391.75;5093809;28;20107;-45
2023/04/20 06:29:36;;;;;;;8.88;2.80;;;;;;;8.65;62.91;102393.91;5082514;28;20519;-46
2023/04/20 06:32:03;;;;;;;8.95;3.30;;;;;;;8.33;64.17;102394.44;5072931;28;20024;-48
2023/04/20 06:34:29;;;;;;;5.72;2.53;;;;;;;8.34;64.42;102394.31;5107786;28;20039;-48
2023/04/20 06:36:56;;;;;;;10.70;2.50;;;;;;;8.52;63.83;102394.34;5082845;28;20085;-47
2023/04/20 06:39:23;;;;;;;10.73;2.63;;;;;;;8.85;62.82;102399.91;5078123;28;20389;-44
2023/04/20 06:41:49;;;;;;;5.65;2.25;;;;;;;9.03;62.65;102406.03;5073268;28;20024;-45
2023/04/20 06:44:15;;;;;;;4.82;2.40;;;;;;;9.06;62.34;102403.06;5101562;28;20028;-48
2023/04/20 06:46:41;;;;;;;4.45;2.17;;;;;;;9.11;62.25;102400.75;5073152;28;20020;-44
2023/04/20 06:49:08;;;;;;;10.57;2.25;;;;;;;8.86;62.50;102406.94;5090414;28;20546;-45
2023/04/20 06:51:34;;;;;;;6.13;2.17;;;;;;;8.64;63.26;102401.09;5093584;28;20100;-46
2023/04/20 06:54:00;;;;;;;7.43;2.75;;;;;;;8.40;64.31;102404.41;5091741;28;20032;-46
2023/04/20 06:56:26;;;;;;;5.60;2.28;;;;;;;8.20;65.02;102403.69;5092704;28;20020;-48
2023/04/20 06:58:52;;;;;;;8.02;2.45;;;;;;;8.34;65.15;102406.81;5101363;28;20031;-48
2023/04/20 07:01:19;;;;;;;5.75;2.67;;;;;;;8.71;63.99;102393.28;5113780;28;20034;-48
2023/04/20 07:03:45;;;;;;;5.88;2.30;;;;;;;8.85;63.34;102389.25;5096878;28;20027;-47
2023/04/20 07:06:11;;;;;;;7.82;2.45;;;;;;;8.98;62.95;102378.97;5093064;28;20077;-45
2023/04/20 07:08:40;;;;;;;3.65;2.15;;;;;;;8.95;63.02;102381.97;5091740;28;20107;-44
2023/04/20 07:11:07;;;;;;;7.88;3.28;;;;;;;8.88;63.24;102389.78;5093153;28;20024;-47
2023/04/20 07:13:33;;;;;;;5.82;2.78;;;;;;;8.85;63.39;102383.91;5093037;28;20034;-48
2023/04/20 07:15:59;;;;;;;6.60;2.92;;;;;;;8.90;63.25;102394.94;5093059;28;20028;-48
2023/04/20 07:18:26;;;;;;;5.22;2.63;;;;;;;8.86;63.45;102398.91;5090859;28;20445;-45
2023/04/20 07:20:52;;;;;;;9.55;2.75;;;;;;;8.89;63.22;102394.13;5092791;28;20031;-47
2023/04/20 07:23:19;;;;;;;5.68;2.45;;;;;;;8.99;63.17;102396.66;5102595;28;20032;-48
2023/04/20 07:25:45;;;;;;;4.88;2.20;;;;;;;9.07;62.75;102401.22;5108018;28;20467;-45
2023/04/20 07:28:11;;;;;;;5.47;2.47;;;;;;;8.94;63.37;102397.16;5072728;28;20181;-47
2023/04/20 07:30:37;;;;;;;5.50;2.45;;;;;;;9.15;62.91;102399.44;5072081;28;20109;-47
2023/04/20 07:33:07;;;;;;;4.78;2.10;;;;;;;9.14;62.95;102403.09;5084519;28;20036;-47
2023/04/20 07:35:33;;;;;;;7.20;2.22;;;;;;;9.18;62.70;102400.97;5071251;28;20017;-47
2023/04/20 07:37:59;;;;;;;8.18;2.47;;;;;;;9.17;62.91;102397.47;5076657;28;20020;-49
2023/04/20 07:40:25;;;;;;;7.63;3.33;;;;;;;9.06;63.34;102403.06;5070719;28;20388;-49
2023/04/20 07:42:52;;;;;;;5.38;2.67;;;;;;;9.22;62.76;102408.50;5071576;28;20043;-49
2023/04/20 07:45:20;;;;;;;4.97;2.47;;;;;;;9.23;63.08;102406.66;5071712;28;20039;-49
2023/04/20 07:47:50;;;;;;;5.28;2.75;;;;;;;9.17;63.09;102410.81;5075016;28;20693;-49
2023/04/20 07:50:16;;;;;;;4.88;2.88;;;;;;;9.33;62.89;102403.84;5072595;28;20028;-47
2023/04/20 07:52:46;;;;;;;12.68;3.30;;;;;;;9.25;63.38;102408.16;5100815;28;20081;-44
2023/04/20 07:55:13;;;;;;;8.05;2.80;;;;;;;9.23;63.10;102404.84;5094318;28;20017;-48
2023/04/20 07:57:40;;;;;;;6.35;2.72;;;;;;;9.13;63.43;102404.09;5099087;28;20026;-44
2023/04/20 08:00:07;;;;;;;5.05;3.20;;;;;;;9.09;63.53;102404.56;5112741;28;20031;-46
2023/04/20 08:02:33;;;;;;;4.50;2.60;;;;;;;9.06;63.60;102411.06;5097182;28;20036;-43
2023/04/20 08:05:02;;;;;;;6.03;3.13;;;;;;;9.08;63.83;102410.91;5091881;28;20069;-43
2023/04/20 08:07:28;;;;;;;6.68;2.85;;;;;;;9.04;63.87;102407.72;5078263;28;20028;-44
2023/04/20 08:09:55;;;;;;;6.82;3.03;;;;;;;9.10;63.97;102400.91;5074241;28;20032;-44
2023/04/20 08:12:22;;;;;;;8.23;3.30;;;;;;;8.99;64.50;102408.22;5069894;28;20024;-48
2023/04/20 08:14:48;;;;;;;7.15;2.83;;;;;;;8.92;64.71;102399.13;5071212;28;20025;-44
2023/04/20 08:17:14;;;;;;;8.27;3.25;;;;;;;8.95;65.02;102395.31;5070991;28;20054;-44
2023/04/20 08:19:41;;;;;;;6.25;2.70;;;;;;;8.94;65.03;102393.66;5071154;28;20366;-46
2023/04/20 08:22:07;;;;;;;4.72;2.40;;;;;;;8.92;64.84;102395.63;5072637;28;20036;-44
2023/04/20 08:24:33;;;;;;;4.47;2.58;;;;;;;8.89;64.70;102394.13;5070946;28;20025;-44
2023/04/20 08:27:00;;;;;;;5.55;2.45;;;;;;;8.88;64.73;102399.59;5074331;28;20016;-44
2023/04/20 08:29:26;;;;;;;6.00;2.45;;;;;;;8.80;65.05;102396.88;5070108;28;20034;-48
2023/04/20 08:31:53;;;;;;;3.30;2.20;;;;;;;8.75;64.91;102400.00;5078372;28;20024;-46
2023/04/20 08:34:19;;;;;;;3.13;1.65;;;;;;;8.73;65.13;102399.34;5081341;28;20043;-46
2023/04/20 08:36:45;;;;;;;6.25;2.45;;;;;;;8.78;65.20;102404.22;5086909;28;20069;-45
2023/04/20 08:39:18;;;;;;;6.85;3.00;;;;;;;8.84;65.47;102403.59;5112125;28;20028;-44
2023/04/20 08:41:45;;;;;;;4.38;2.33;;;;;;;8.77;65.57;102410.53;5098352;28;20067;-47
2023/04/20 08:44:11;;;;;;;6.75;2.75;;;;;;;8.56;66.51;102401.03;5071193;28;20023;-44
2023/04/20 08:46:43;;;;;;;9.32;2.75;;;;;;;8.70;66.22;102397.81;5075168;28;20508;-47
2023/04/20 08:49:13;;;;;;;4.85;2.50;;;;;;;8.51;66.57;102406.00;5084731;28;20486;-43
2023/04/20 08:51:39;;;;;;;11.30;2.58;;;;;;;8.46;66.79;102410.97;5075576;28;20498;-45
2023/04/20 08:54:06;;;;;;;8.93;2.58;;;;;;;8.54;66.83;102415.53;5091419;28;20028;-45
2023/04/20 08:56:34;;;;;;;11.18;2.70;;;;;;;8.62;66.84;102416.44;5088698;28;20028;-44
2023/04/20 08:59:05;;;;;;;7.75;2.70;;;;;;;8.31;67.81;102402.63;5070483;28;20385;-45
2023/04/20 09:01:34;;;;;;;7.28;2.95;;;;;;;8.35;67.74;102409.34;5070649;28;20028;-45
2023/04/20 09:04:00;;;;;;;6.32;2.97;;;;;;;8.51;67.08;102415.84;5070557;28;20481;-45
2023/04/20 09:06:27;;;;;;;5.68;2.60;;;;;;;8.25;67.76;102416.56;5070339;28;20123;-47
2023/04/20 09:08:54;;;;;;;6.47;2.80;;;;;;;8.18;68.08;102418.19;5069227;28;20028;-44
2023/04/20 09:11:25;;;;;;;7.00;2.97;;;;;;;8.33;67.81;102416.66;5071748;28;20415;-45
2023/04/20 09:13:58;;;;;;;5.25;2.60;;;;;;;8.24;67.96;102422.91;5069254;28;20032;-44
2023/04/20 09:16:24;;;;;;;5.85;3.30;;;;;;;8.18;67.96;102413.69;5088510;28;20032;-44
2023/04/20 09:18:55;;;;;;;8.32;3.45;;;;;;;8.12;68.09;102408.94;5091338;28;20483;-44
2023/04/20 09:21:23;;;;;;;10.13;6.82;;;;;;;8.18;68.39;102416.34;5091395;28;20094;-44
2023/04/20 09:24:06;;;;;;;55.75;27.92;;;;;;;8.26;68.98;102414.72;5090887;28;20020;-44
2023/04/20 09:26:34;;;;;;;37.83;20.00;;;;;;;8.24;70.35;102417.56;5070915;28;20064;-44
2023/04/20 09:29:02;;;;;;;22.75;10.40;;;;;;;8.49;70.74;102418.66;5072270;28;20035;-45
2023/04/20 09:31:28;;;;;;;13.13;5.50;;;;;;;8.54;71.00;102421.69;5074113;28;20028;-44
2023/04/20 09:34:03;;;;;;;21.50;6.35;;;;;;;8.61;70.88;102422.78;5089454;28;20109;-45
2023/04/20 09:36:46;;;;;;;8.68;4.85;;;;;;;8.49;70.66;102426.66;5073887;28;20082;-45
2023/04/20 09:39:15;;;;;;;7.95;4.15;;;;;;;8.60;70.67;102433.59;5076757;28;20032;-47
2023/04/20 09:41:42;;;;;;;9.05;3.45;;;;;;;8.51;70.80;102430.03;5074088;28;20040;-44
2023/04/20 09:44:10;;;;;;;7.07;3.50;;;;;;;8.41;71.11;102429.25;5076425;28;20036;-47
2023/04/20 09:46:39;;;;;;;11.55;3.22;;;;;;;8.22;72.17;102430.22;5074969;28;20042;-44
2023/04/20 09:49:07;;;;;;;12.07;3.63;;;;;;;8.38;72.28;102413.53;5076630;28;20483;-43
2023/04/20 09:51:40;;;;;;;9.15;3.25;;;;;;;8.27;73.10;102411.91;5073615;28;20115;-45
2023/04/20 09:54:07;;;;;;;11.57;3.38;;;;;;;8.26;73.22;102417.41;5074654;28;20496;-47
2023/04/20 09:56:34;;;;;;;10.05;3.17;;;;;;;8.53;71.94;102414.69;5072959;28;20111;-47
2023/04/20 09:59:02;;;;;;;7.40;3.13;;;;;;;8.44;71.52;102416.47;5074729;28;20028;-43
2023/04/20 10:01:30;;;;;;;11.60;3.10;;;;;;;8.42;71.34;102409.59;5077635;28;20039;-45
2023/04/20 10:03:59;;;;;;;9.32;3.80;;;;;;;8.40;71.39;102407.06;5075668;28;20024;-47
2023/04/20 10:06:33;;;;;;;8.25;2.97;;;;;;;8.49;70.53;102401.78;5090244;28;20017;-43
2023/04/20 10:09:05;;;;;;;9.93;3.15;;;;;;;8.31;71.01;102399.13;5077698;28;20028;-47
2023/04/20 10:11:37;;;;;;;9.52;3.10;;;;;;;8.41;70.42;102405.25;5114749;28;20055;-45
2023/04/20 10:14:22;;;;;;;9.13;3.00;;;;;;;8.54;69.60;102413.69;5108683;28;20037;-46
2023/04/20 10:17:06;;;;;;;7.63;2.97;;;;;;;8.42;70.31;102418.44;5072971;28;20117;-44
2023/04/20 10:19:40;;;;;;;7.50;2.90;;;;;;;8.51;69.85;102408.69;5077900;28;20028;-46
2023/04/20 10:22:07;;;;;;;6.85;2.90;;;;;;;8.50;69.51;102412.34;5073364;28;20075;-46
2023/04/20 10:24:36;;;;;;;7.72;3.25;;;;;;;8.52;69.79;102410.34;5075592;28;20024;-45
2023/04/20 10:27:03;;;;;;;8.90;2.88;;;;;;;8.53;69.67;102414.69;5074806;28;20032;-43
2023/04/20 10:29:34;;;;;;;8.70;3.33;;;;;;;8.60;69.52;102412.22;5076947;28;20113;-45
2023/04/20 10:32:00;;;;;;;5.80;2.80;;;;;;;8.67;68.97;102410.66;5088152;28;20123;-45
2023/04/20 10:34:35;;;;;;;4.63;2.47;;;;;;;8.63;69.04;102410.09;5077061;28;20032;-45
2023/04/20 10:37:12;;;;;;;6.00;3.00;;;;;;;8.58;68.75;102408.88;5093871;28;20044;-47
2023/04/20 10:39:45;;;;;;;7.45;2.83;;;;;;;8.60;69.05;102394.38;5095754;28;20106;-46
2023/04/20 10:42:12;;;;;;;5.05;2.20;;;;;;;8.63;68.74;102399.44;5113813;28;20087;-44
2023/04/20 10:44:52;;;;;;;5.75;2.38;;;;;;;8.71;68.54;102396.81;5103257;28;20031;-46
2023/04/20 10:47:30;;;;;;;6.05;2.70;;;;;;;8.66;68.69;102400.94;5072704;28;20051;-47
2023/04/20 10:50:11;;;;;;;7.40;2.70;;;;;;;8.63;68.79;102391.41;5078543;28;20020;-46
2023/04/20 10:52:39;;;;;;;7.22;2.97;;;;;;;8.76;68.98;102390.16;5072879;28;20077;-47
2023/04/20 10:55:27;;;;;;;6.05;2.85;;;;;;;8.76;68.97;102390.16;5073756;28;20036;-47
2023/04/20 10:57:53;;;;;;;6.45;2.88;;;;;;;8.64;69.37;102389.59;5091887;28;20036;-48
2023/04/20 11:00:22;;;;;;;6.30;2.55;;;;;;;8.69;68.85;102389.97;5081950;28;20535;-46
2023/04/20 11:02:50;;;;;;;4.50;2.67;;;;;;;8.83;68.44;102380.53;5073118;28;20032;-46
2023/04/20 11:05:17;;;;;;;6.75;2.70;;;;;;;8.53;69.17;102384.50;5097390;28;20023;-45
2023/04/20 11:08:02;;;;;;;6.30;2.83;;;;;;;8.71;68.64;102388.78;5113773;28;20379;-47
2023/04/20 11:10:46;;;;;;;6.68;2.45;;;;;;;8.67;68.42;102386.63;5083265;28;20032;-46
2023/04/20 11:13:24;;;;;;;7.28;3.17;;;;;;;8.62;68.66;102384.41;5072383;28;20040;-45
2023/04/20 11:15:51;;;;;;;13.00;3.10;;;;;;;8.84;68.22;102388.41;5072262;28;20272;-44
2023/04/20 11:18:17;;;;;;;5.88;2.90;;;;;;;8.80;68.37;102387.03;5072167;28;20064;-45
2023/04/20 11:20:55;;;;;;;8.27;2.83;;;;;;;8.83;67.79;102381.41;5078229;28;20036;-45
2023/04/20 11:23:26;;;;;;;4.85;2.40;;;;;;;8.72;68.11;102389.66;5072527;28;20112;-48
2023/04/20 11:25:54;;;;;;;5.65;2.30;;;;;;;8.71;68.17;102391.47;5073045;28;20151;-47
2023/04/20 11:28:21;;;;;;;8.25;3.13;;;;;;;8.86;68.00;102391.75;5072361;28;20021;-46
2023/04/20 11:30:49;;;;;;;9.07;2.80;;;;;;;9.01;67.48;102394.69;5085977;28;20121;-47